createdAt,value
2022-08-17T00:01:21.080Z,983.3
2022-08-17T00:06:40.345Z,983.2
2022-08-17T00:12:03.851Z,983.2
2022-08-17T00:17:19.011Z,983.2
2022-08-17T00:22:38.223Z,983.2
2022-08-17T00:27:57.197Z,983.2
2022-08-17T00:33:17.003Z,983.2
2022-08-17T00:38:35.304Z,983.2
2022-08-17T00:43:54.265Z,983
2022-08-17T00:49:23.586Z,983.1
2022-08-17T00:54:32.804Z,983
2022-08-17T01:00:01.688Z,983.2
2022-08-17T01:05:11.219Z,983.1
2022-08-17T01:10:57.726Z,983.1
2022-08-17T01:16:00.514Z,983
2022-08-17T01:21:09.203Z,983
2022-08-17T01:26:28.748Z,983
2022-08-17T01:31:48.341Z,983
2022-08-17T01:37:07.296Z,983.2
2022-08-17T01:42:26.856Z,983.1
2022-08-17T01:47:46.306Z,983.1
2022-08-17T01:53:05.770Z,983.1
2022-08-17T02:03:53.278Z,983.1
2022-08-17T02:09:03.984Z,983.2
2022-08-17T02:14:23.149Z,983.1
2022-08-17T02:19:42.495Z,983.1
2022-08-17T02:25:02.449Z,983.1
2022-08-17T02:30:50.076Z,983.1
2022-08-17T02:35:39.934Z,983.1
2022-08-17T02:40:58.720Z,983.1
2022-08-17T02:46:18.236Z,983.1
2022-08-17T02:55:54.257Z,982.9
2022-08-17T03:00:10.768Z,982.9
2022-08-17T03:08:43.867Z,983
2022-08-17T03:13:00.356Z,983
2022-08-17T03:18:19.053Z,983
2022-08-17T03:23:32.745Z,983
2022-08-17T03:28:52.027Z,983.1
2022-08-17T03:34:11.289Z,983.1
2022-08-17T03:39:43.094Z,983.1
2022-08-17T03:48:03.935Z,983.2
2022-08-17T03:55:41.331Z,983.2
2022-08-17T04:04:02.362Z,983.2
2022-08-17T04:16:45.805Z,983.2
2022-08-17T04:22:04.938Z,983.3
2022-08-17T04:27:23.934Z,983.3
2022-08-17T04:33:00.414Z,983.4
2022-08-17T04:38:02.458Z,983.4
2022-08-17T04:43:21.793Z,983.4
2022-08-17T04:48:41.377Z,983.3
2022-08-17T04:54:00.427Z,983.4
2022-08-17T04:59:19.626Z,983.5
2022-08-17T05:04:38.407Z,983.5
2022-08-17T05:09:57.198Z,983.5
2022-08-17T05:15:16.203Z,983.5
2022-08-17T05:20:35.138Z,983.5
2022-08-17T05:25:53.909Z,983.4
2022-08-17T05:34:26.985Z,983.3
2022-08-17T05:38:55.504Z,983.4
2022-08-17T05:43:00.038Z,983.4
2022-08-17T05:47:10.695Z,983.3
2022-08-17T05:55:43.793Z,983.3
2022-08-17T06:03:19.459Z,983.4
2022-08-17T06:08:27.444Z,983.4
2022-08-17T06:13:46.675Z,983.6
2022-08-17T06:19:05.728Z,983.6
2022-08-17T06:27:38.775Z,983.8
2022-08-17T06:35:02.736Z,983.6
2022-08-17T06:40:22.314Z,983.6
2022-08-17T06:45:41.924Z,983.6
2022-08-17T06:54:14.966Z,983.6
2022-08-17T06:56:19.651Z,983.8
2022-08-17T07:01:39.168Z,983.7
2022-08-17T07:06:58.682Z,983.7
2022-08-17T07:12:17.669Z,983.6
2022-08-17T07:17:47.107Z,983.5
2022-08-17T07:22:59.598Z,983.6
2022-08-17T07:28:14.641Z,983.6
2022-08-17T07:33:33.531Z,983.8
2022-08-17T07:38:52.701Z,983.8
2022-08-17T07:44:11.785Z,983.7
2022-08-17T07:49:31.672Z,983.6
2022-08-17T07:58:04.347Z,983.5
2022-08-17T08:05:44.333Z,983.4
2022-08-17T08:10:47.232Z,983.5
2022-08-17T08:16:06.586Z,983.4
2022-08-17T08:21:26.047Z,983.4
2022-08-17T08:26:45.670Z,983.4
2022-08-17T08:32:05.191Z,983.3
2022-08-17T08:37:32.808Z,983.4
2022-08-17T08:42:42.968Z,983.4
2022-08-17T08:48:02.423Z,983.5
2022-08-17T08:53:20.870Z,983.4
2022-08-17T08:58:42.156Z,983.4
2022-08-17T09:04:12.014Z,983.4
2022-08-17T09:09:18.129Z,983.5
2022-08-17T09:14:43.099Z,983.6
2022-08-17T09:19:56.914Z,983.5
2022-08-17T09:25:16.458Z,983.5
2022-08-17T09:30:35.390Z,983.5
2022-08-17T09:35:54.206Z,983.5
2022-08-17T09:41:13.574Z,983.5
2022-08-17T09:46:32.704Z,983.5
2022-08-17T09:51:51.999Z,983.5
2022-08-17T09:57:28.945Z,983.6
2022-08-17T10:02:30.507Z,983.7
2022-08-17T10:11:03.604Z,983.7
2022-08-17T10:13:09.567Z,983.7
2022-08-17T10:23:46.217Z,983.8
2022-08-17T10:29:04.996Z,983.8
2022-08-17T10:34:24.453Z,983.7
2022-08-17T10:39:50.669Z,983.8
2022-08-17T10:45:15.232Z,983.7
2022-08-17T10:50:22.171Z,983.8
2022-08-17T10:55:41.285Z,983.9
2022-08-17T11:01:00.241Z,984
2022-08-17T11:06:18.886Z,984
2022-08-17T11:11:38.419Z,984.1
2022-08-17T11:16:57.766Z,984.1
2022-08-17T11:22:16.621Z,984.1
2022-08-17T11:27:35.707Z,984.2
2022-08-17T11:36:08.758Z,984.1
2022-08-17T11:38:16.155Z,984.1
2022-08-17T11:48:52.701Z,984.1
2022-08-17T11:54:31.485Z,984.1
2022-08-17T11:59:30.404Z,984.2
2022-08-17T12:04:49.779Z,984.3
2022-08-17T12:10:08.707Z,984.5
2022-08-17T12:15:27.994Z,984.7
2022-08-17T12:24:01.046Z,984.8
2022-08-17T12:36:44.132Z,984.8
2022-08-17T12:45:17.208Z,984.7
2022-08-17T12:47:23.083Z,984.8
2022-08-17T12:52:41.374Z,984.7
2022-08-17T12:58:00.910Z,984.6
2022-08-17T13:03:19.843Z,984.7
2022-08-17T13:08:39.357Z,984.8
2022-08-17T13:13:58.254Z,984.7
2022-08-17T13:19:16.994Z,984.7
2022-08-17T13:24:37.962Z,984.5
2022-08-17T13:29:55.541Z,984.4
2022-08-17T13:35:28.451Z,984.3
2022-08-17T13:40:33.896Z,984.2
2022-08-17T13:45:52.991Z,984.1
2022-08-17T13:51:11.857Z,984
2022-08-17T13:56:31.839Z,984
2022-08-17T14:01:53.689Z,983.9
2022-08-17T14:07:09.900Z,983.8
2022-08-17T14:12:28.890Z,983.7
2022-08-17T14:17:48.533Z,983.7
2022-08-17T14:23:07.530Z,983.6
2022-08-17T14:28:26.793Z,983.6
2022-08-17T14:33:46.043Z,983.6
2022-08-17T14:39:05.558Z,983.3
2022-08-17T14:44:25.042Z,983.1
2022-08-17T14:49:43.783Z,982.9
2022-08-17T14:55:03.233Z,982.9
2022-08-17T15:00:22.528Z,982.9
2022-08-17T15:05:42.060Z,983
2022-08-17T15:11:00.762Z,983
2022-08-17T15:16:20.224Z,983.1
2022-08-17T15:21:39.399Z,983.2
2022-08-17T15:32:18.244Z,983.2
2022-08-17T15:42:56.487Z,983.1
2022-08-17T15:48:15.367Z,983.1
2022-08-17T15:53:34.148Z,983.1
2022-08-17T15:58:53.374Z,983
2022-08-17T16:04:14.932Z,982.9
2022-08-17T16:04:40.830Z,983
2022-08-17T16:09:59.821Z,983.1
2022-08-17T16:18:32.918Z,983.1
2022-08-17T16:22:49.915Z,983.1
2022-08-17T16:31:22.507Z,982.9
2022-08-17T16:36:35.810Z,982.9
2022-08-17T16:45:08.850Z,982.9
2022-08-17T16:57:53.598Z,982.9
2022-08-17T17:06:26.648Z,982.8
2022-08-17T17:08:32.616Z,982.9
2022-08-17T17:13:51.635Z,982.9
2022-08-17T17:19:10.281Z,982.9
2022-08-17T17:24:30.021Z,982.9
2022-08-17T17:29:49.197Z,982.8
2022-08-17T17:35:07.643Z,982.8
2022-08-17T17:40:26.531Z,982.9
2022-08-17T17:45:45.834Z,982.9
2022-08-17T17:51:04.752Z,982.8
2022-08-17T17:56:43.081Z,982.9
2022-08-17T18:01:43.864Z,982.8
2022-08-17T18:07:03.204Z,982.7
2022-08-17T18:12:22.074Z,982.7
2022-08-17T18:17:40.750Z,982.7
2022-08-17T18:22:59.914Z,982.7
2022-08-17T18:28:18.859Z,982.7
2022-08-17T18:33:38.440Z,982.8
2022-08-17T18:42:13.087Z,982.7
2022-08-17T18:46:29.406Z,982.9
2022-08-17T18:49:35.985Z,982.8
2022-08-17T18:54:55.386Z,982.9
2022-08-17T19:00:14.114Z,983
2022-08-17T19:05:33.762Z,983.1
2022-08-17T19:10:53.174Z,983.1
2022-08-17T19:16:15.177Z,983.1
2022-08-17T19:21:31.275Z,983.1
2022-08-17T19:26:54.139Z,983.1
2022-08-17T19:32:09.531Z,983.2
2022-08-17T19:37:28.842Z,983.1
2022-08-17T19:42:47.878Z,983.1
2022-08-17T19:48:07.136Z,983
2022-08-17T19:53:33.167Z,983
2022-08-17T19:58:45.049Z,983.1
2022-08-17T20:04:04.714Z,983
2022-08-17T20:09:23.641Z,983
2022-08-17T20:14:51.767Z,983.1
2022-08-17T20:20:19.538Z,983
2022-08-17T20:25:23.146Z,983.1
2022-08-17T20:30:39.746Z,983.2
2022-08-17T20:39:12.798Z,983.3
2022-08-17T20:41:17.302Z,983.4
2022-08-17T20:46:36.995Z,983.4
2022-08-17T20:52:01.089Z,983.4
2022-08-17T20:57:15.359Z,983.5
2022-08-17T21:05:48.372Z,983.5
2022-08-17T21:18:43.663Z,983.6
2022-08-17T21:23:52.004Z,983.6
2022-08-17T21:29:29.604Z,983.6
2022-08-17T21:34:31.021Z,983.7
2022-08-17T21:39:49.782Z,983.7
2022-08-17T21:45:09.280Z,983.8
2022-08-17T21:50:28.594Z,983.8
2022-08-17T21:55:47.730Z,983.8
2022-08-17T22:01:06.664Z,983.8
2022-08-17T22:06:25.505Z,983.9
2022-08-17T22:11:44.331Z,983.9
2022-08-17T22:17:03.133Z,983.9
2022-08-17T22:22:21.927Z,983.9
2022-08-17T22:27:40.692Z,984
2022-08-17T22:32:59.573Z,984
2022-08-17T22:38:18.480Z,984
2022-08-17T22:43:48.330Z,984
2022-08-17T22:48:56.320Z,984.1
2022-08-17T22:54:15.380Z,984.1
2022-08-17T22:59:34.467Z,984.1
2022-08-17T23:04:53.531Z,984.2
2022-08-17T23:10:12.839Z,984.2
2022-08-17T23:15:31.904Z,984.1
2022-08-17T23:20:51.177Z,984
2022-08-17T23:29:24.222Z,984.1
2022-08-17T23:31:29.238Z,984.2
2022-08-17T23:36:48.559Z,984.4
2022-08-17T23:42:07.412Z,985
2022-08-17T23:47:26.802Z,985
2022-08-17T23:52:56.684Z,985.2
2022-08-17T23:58:04.591Z,985.2
